Time;durP1;ratioP1;P1;durP2;ratioP2;P2;SDS_P1;SDS_P2;PMS_P1;PMS_P2;Temp;Humidity;BMP_temperature;BMP_pressure;BME280_temperature;BME280_humidity;BME280_pressure;Samples;Min_cycle;Max_cycle;Signal;HPM_P1;HPM_P2
2020/12/08 00:01:05;;;;;;;12.20;9.10;;;5.70;99.90;;;;;;4991776;28;20467;-79
2020/12/08 00:03:33;;;;;;;11.00;8.97;;;5.90;99.90;;;;;;4981826;28;20459;-81
2020/12/08 00:05:59;;;;;;;11.13;8.87;;;5.80;99.90;;;;;;4979094;28;20475;-78
2020/12/08 00:08:26;;;;;;;11.00;8.80;;;5.50;99.90;;;;;;4979406;28;20488;-80
2020/12/08 00:10:52;;;;;;;11.50;9.27;;;5.60;99.90;;;;;;4979775;28;21322;-81
2020/12/08 00:13:19;;;;;;;14.67;9.50;;;5.90;99.90;;;;;;4992928;28;20436;-81
2020/12/08 00:15:45;;;;;;;10.97;8.83;;;5.70;99.90;;;;;;5006028;28;20509;-79
2020/12/08 00:18:12;;;;;;;14.63;9.70;;;5.60;99.90;;;;;;4975404;28;20557;-79
2020/12/08 00:20:38;;;;;;;12.17;9.30;;;5.80;99.90;;;;;;4978814;28;20472;-81
2020/12/08 00:23:05;;;;;;;12.30;9.33;;;5.60;99.90;;;;;;4975282;28;20459;-80
2020/12/08 00:25:32;;;;;;;11.33;9.77;;;5.70;99.90;;;;;;4992724;28;20471;-81
2020/12/08 00:27:59;;;;;;;11.37;9.30;;;5.90;99.90;;;;;;4974453;28;20464;-81
2020/12/08 00:30:26;;;;;;;14.17;9.93;;;5.90;99.90;;;;;;4976874;28;20486;-81
2020/12/08 00:32:53;;;;;;;12.10;10.40;;;5.70;99.90;;;;;;4974252;28;20468;-80
2020/12/08 00:35:21;;;;;;;11.77;9.47;;;5.70;99.90;;;;;;4976760;28;20529;-82
2020/12/08 00:37:48;;;;;;;15.30;11.23;;;5.80;99.90;;;;;;4975678;28;20484;-78
2020/12/08 00:40:15;;;;;;;12.70;9.47;;;5.80;99.90;;;;;;4975711;28;20559;-79
2020/12/08 00:42:41;;;;;;;14.37;10.03;;;5.70;99.90;;;;;;4977493;28;20459;-78
2020/12/08 00:45:12;;;;;;;15.23;10.77;;;5.80;99.90;;;;;;4973952;28;20490;-78
2020/12/08 00:47:38;;;;;;;11.20;9.33;;;5.60;99.90;;;;;;4975802;28;20581;-82
2020/12/08 00:50:06;;;;;;;10.30;9.03;;;5.40;99.90;;;;;;4975128;28;20471;-79
2020/12/08 00:52:33;;;;;;;10.00;8.63;;;5.70;99.90;;;;;;4976889;28;20980;-80
2020/12/08 00:55:05;;;;;;;11.53;9.10;;;5.80;99.90;;;;;;4975525;28;20463;-80
2020/12/08 00:57:31;;;;;;;13.67;9.87;;;5.80;99.90;;;;;;4982487;28;20472;-80
2020/12/08 00:59:58;;;;;;;13.97;9.70;;;5.70;99.90;;;;;;4981935;28;20475;-80
2020/12/08 01:02:26;;;;;;;12.00;9.07;;;5.50;99.90;;;;;;4981759;28;21028;-78
2020/12/08 01:04:53;;;;;;;13.10;10.03;;;5.20;99.90;;;;;;4980817;28;20455;-80
2020/12/08 01:07:19;;;;;;;12.90;9.67;;;5.10;99.90;;;;;;4980448;28;20958;-79
2020/12/08 01:09:46;;;;;;;13.57;9.83;;;5.00;99.90;;;;;;4979781;28;20775;-79
2020/12/08 01:12:13;;;;;;;13.50;9.20;;;5.00;99.90;;;;;;4981533;28;20459;-78
2020/12/08 01:14:39;;;;;;;14.80;10.03;;;4.90;99.90;;;;;;4980588;28;20484;-81
2020/12/08 01:17:06;;;;;;;10.27;8.07;;;4.90;99.90;;;;;;4980855;28;20482;-79
2020/12/08 01:19:32;;;;;;;9.30;7.80;;;5.00;99.90;;;;;;4978770;28;20505;-80
2020/12/08 01:21:59;;;;;;;14.73;9.70;;;5.30;99.90;;;;;;4991830;28;20451;-81
2020/12/08 01:24:27;;;;;;;13.37;9.80;;;5.20;99.90;;;;;;4975126;28;20460;-79
2020/12/08 01:26:58;;;;;;;10.80;8.67;;;5.10;99.90;;;;;;4976159;28;20456;-80
2020/12/08 01:29:25;;;;;;;11.60;9.17;;;5.10;99.90;;;;;;4977196;28;20483;-79
2020/12/08 01:31:52;;;;;;;12.57;9.37;;;5.40;99.90;;;;;;4979098;28;20505;-77
2020/12/08 01:34:19;;;;;;;14.00;8.80;;;5.80;99.90;;;;;;4980339;28;20519;-81
2020/12/08 01:36:45;;;;;;;14.97;10.60;;;6.00;99.90;;;;;;4977006;28;20502;-81
2020/12/08 01:39:15;;;;;;;13.07;9.50;;;5.70;99.90;;;;;;4991189;28;20562;-81
2020/12/08 01:41:41;;;;;;;13.07;10.23;;;5.50;99.90;;;;;;4989908;28;20455;-80
2020/12/08 01:44:08;;;;;;;15.07;10.80;;;5.80;99.90;;;;;;4977059;28;20460;-77
2020/12/08 01:46:36;;;;;;;15.20;11.20;;;5.80;99.90;;;;;;4978135;28;20989;-81
2020/12/08 01:49:03;;;;;;;16.50;10.50;;;5.70;99.90;;;;;;4977155;28;20964;-81
2020/12/08 01:51:30;;;;;;;15.43;12.07;;;5.60;99.90;;;;;;4977977;28;20458;-79
2020/12/08 01:53:59;;;;;;;17.90;13.13;;;5.70;99.90;;;;;;4978762;28;20455;-80
2020/12/08 01:56:25;;;;;;;13.63;10.40;;;5.70;99.90;;;;;;4979579;28;20447;-80
2020/12/08 01:58:52;;;;;;;16.80;13.47;;;5.90;99.90;;;;;;4980401;28;22293;-80
2020/12/08 02:01:18;;;;;;;18.30;12.27;;;5.80;99.90;;;;;;4978873;28;20456;-81
2020/12/08 02:03:49;;;;;;;19.57;13.37;;;5.90;99.90;;;;;;4980264;28;20486;-81
2020/12/08 02:06:15;;;;;;;14.37;11.07;;;5.90;99.90;;;;;;4980477;28;20526;-82
2020/12/08 02:08:44;;;;;;;18.47;12.57;;;5.80;99.90;;;;;;4978916;28;20479;-78
2020/12/08 02:11:11;;;;;;;16.53;11.50;;;5.90;99.90;;;;;;4983661;28;20456;-82
2020/12/08 02:13:38;;;;;;;16.47;12.00;;;6.00;99.90;;;;;;4982564;28;20467;-81
2020/12/08 02:16:05;;;;;;;18.03;11.93;;;5.80;99.90;;;;;;4993447;28;20467;-82
2020/12/08 02:18:35;;;;;;;17.13;12.50;;;5.70;99.90;;;;;;4981853;28;20649;-80
2020/12/08 02:21:03;;;;;;;16.10;11.83;;;5.80;99.90;;;;;;4979826;28;20460;-80
2020/12/08 02:23:30;;;;;;;19.87;13.73;;;6.00;99.90;;;;;;4978118;28;20455;-79
2020/12/08 02:25:58;;;;;;;17.23;12.00;;;5.90;99.90;;;;;;4990263;28;20459;-81
2020/12/08 02:28:26;;;;;;;19.10;13.83;;;5.80;99.90;;;;;;4982540;28;20467;-81
2020/12/08 02:30:53;;;;;;;18.50;12.67;;;6.00;99.90;;;;;;4978925;28;20527;-81
2020/12/08 02:33:38;;;;;;;20.10;13.83;;;6.00;99.90;;;;;;4971721;28;20474;-78
2020/12/08 02:36:04;;;;;;;16.37;13.03;;;6.10;99.90;;;;;;4974699;28;20627;-80
2020/12/08 02:38:31;;;;;;;21.00;14.67;;;6.10;99.90;;;;;;4978517;28;20557;-80
2020/12/08 02:40:58;;;;;;;20.10;13.20;;;6.20;99.90;;;;;;4976439;28;20448;-79
2020/12/08 02:43:24;;;;;;;20.87;13.40;;;6.10;99.90;;;;;;4989503;28;20463;-81
2020/12/08 02:45:51;;;;;;;18.57;13.30;;;6.00;99.90;;;;;;4979470;28;20487;-82
2020/12/08 02:48:18;;;;;;;18.50;13.33;;;6.20;99.90;;;;;;4989834;28;20597;-81
2020/12/08 02:50:57;;;;;;;19.40;13.60;;;6.30;99.90;;;;;;4979105;28;20455;-80
2020/12/08 02:53:24;;;;;;;16.00;11.80;;;6.30;99.90;;;;;;4984974;28;21449;-80
2020/12/08 02:55:50;;;;;;;20.03;14.90;;;6.10;99.90;;;;;;4984804;28;20459;-81
2020/12/08 02:58:17;;;;;;;19.67;12.50;;;6.10;99.90;;;;;;4979601;28;21585;-80
2020/12/08 03:00:44;;;;;;;20.73;13.87;;;6.30;99.90;;;;;;4981474;28;20463;-81
2020/12/08 03:03:11;;;;;;;20.70;14.43;;;6.30;99.90;;;;;;4978587;28;20505;-80
2020/12/08 03:05:37;;;;;;;19.50;14.60;;;6.30;99.90;;;;;;4977649;28;20471;-80
2020/12/08 03:08:04;;;;;;;23.77;15.40;;;6.40;99.90;;;;;;4978095;28;20460;-80
2020/12/08 03:10:30;;;;;;;23.10;14.73;;;6.30;99.90;;;;;;4982125;28;20450;-80
2020/12/08 03:12:57;;;;;;;21.00;13.83;;;6.40;99.90;;;;;;4979303;28;20493;-80
2020/12/08 03:15:25;;;;;;;18.00;13.40;;;6.30;99.90;;;;;;4980856;28;20570;-81
2020/12/08 03:17:52;;;;;;;17.80;13.40;;;6.30;99.90;;;;;;4977084;28;20619;-81
2020/12/08 03:20:18;;;;;;;21.20;14.77;;;6.10;99.90;;;;;;4972661;28;20547;-79
2020/12/08 03:22:45;;;;;;;18.60;14.30;;;6.40;99.90;;;;;;4973153;28;20447;-78
2020/12/08 03:25:12;;;;;;;19.73;14.10;;;6.40;99.90;;;;;;4989966;28;20467;-80
2020/12/08 03:27:39;;;;;;;22.13;14.60;;;6.40;99.90;;;;;;4978456;28;20447;-81
2020/12/08 03:30:06;;;;;;;22.10;14.80;;;6.50;99.90;;;;;;4977778;28;20586;-80
2020/12/08 03:32:34;;;;;;;20.40;15.50;;;6.50;99.90;;;;;;4977349;28;20531;-80
2020/12/08 03:35:01;;;;;;;21.10;15.13;;;6.50;99.90;;;;;;4977836;28;20961;-81
2020/12/08 03:37:28;;;;;;;19.97;14.87;;;6.50;99.90;;;;;;4978576;28;20489;-80
2020/12/08 03:39:55;;;;;;;19.83;14.00;;;6.60;99.90;;;;;;4979968;28;20902;-80
2020/12/08 03:42:23;;;;;;;19.30;14.97;;;6.50;99.90;;;;;;4979069;28;20544;-82
2020/12/08 03:44:50;;;;;;;20.13;14.60;;;6.70;99.90;;;;;;4974860;28;20549;-80
2020/12/08 03:47:17;;;;;;;20.67;14.30;;;6.70;99.90;;;;;;4981031;28;20455;-81
2020/12/08 03:49:44;;;;;;;18.47;14.10;;;6.70;99.90;;;;;;4977735;28;20586;-80
2020/12/08 03:52:11;;;;;;;19.80;13.93;;;6.40;99.90;;;;;;4975000;28;20483;-79
2020/12/08 03:54:38;;;;;;;22.23;15.23;;;6.50;99.90;;;;;;4975151;28;20581;-80
2020/12/08 03:57:05;;;;;;;19.53;14.17;;;6.40;99.90;;;;;;4977294;28;21024;-79
2020/12/08 04:00:06;;;;;;;24.30;15.90;;;6.50;99.90;;;;;;5183334;23;21007;-81
2020/12/08 04:03:10;;;;;;;21.57;14.57;;;6.50;99.90;;;;;;5007238;28;20475;-81
2020/12/08 04:06:00;;;;;;;21.23;16.00;;;6.30;99.90;;;;;;4986609;28;20929;-79
2020/12/08 04:13:33;;;;;;;19.50;14.33;;;6.20;99.90;;;;;;4946297;28;20445;-79
2020/12/08 04:16:29;;;;;;;19.87;13.23;;;6.20;99.90;;;;;;4957496;28;20467;-80
2020/12/08 04:19:21;;;;;;;20.93;15.63;;;6.10;99.90;;;;;;4943474;28;20504;-79
2020/12/08 04:22:16;;;;;;;21.97;15.80;;;6.00;99.90;;;;;;4958788;28;20456;-79
2020/12/08 04:28:26;;;;;;;20.40;15.33;;;6.10;99.90;;;;;;4892985;29;20469;-80
2020/12/08 04:31:29;;;;;;;20.43;13.93;;;6.20;99.90;;;;;;4893948;29;20457;-82
2020/12/08 04:34:16;;;;;;;19.93;14.50;;;6.30;99.90;;;;;;4912786;29;20490;-80
2020/12/08 04:37:44;;;;;;;21.80;15.00;;;6.30;99.90;;;;;;4897696;29;20486;-82
2020/12/08 04:40:51;;;;;;;21.37;14.73;;;6.30;99.90;;;;;;4888904;29;20446;-82
2020/12/08 04:44:05;;;;;;;19.73;12.93;;;6.40;99.90;;;;;;4901380;29;20470;-81
2020/12/08 04:46:59;;;;;;;23.00;15.63;;;6.10;99.90;;;;;;4918242;29;20479;-79
2020/12/08 04:53:13;;;;;;;20.33;13.70;;;6.10;99.90;;;;;;4886481;29;20480;-81
2020/12/08 04:56:37;;;;;;;19.40;14.20;;;6.50;99.90;;;;;;4884946;29;20594;-81
2020/12/08 04:59:38;;;;;;;17.20;12.93;;;6.10;99.90;;;;;;4911070;29;20585;-81
2020/12/08 05:02:42;;;;;;;;;;;;;;;;;;;;;
2020/12/08 05:05:25;;;;;;;16.23;9.90;;;6.40;99.90;;;;;;4940837;28;20521;-79
2020/12/08 05:08:28;;;;;;;17.47;12.67;;;6.40;99.90;;;;;;4988125;28;20450;-79
2020/12/08 05:11:22;;;;;;;;;;;;;;;;;;;;;
2020/12/08 05:14:27;;;;;;;14.90;10.90;;;6.30;99.90;;;;;;4994048;28;20454;-77
2020/12/08 05:17:22;;;;;;;19.67;12.40;;;6.20;99.90;;;;;;4992208;28;20546;-80
2020/12/08 05:20:17;;;;;;;18.07;12.43;;;6.40;99.90;;;;;;4994301;28;20477;-79
2020/12/08 05:23:20;;;;;;;17.90;11.93;;;6.40;99.90;;;;;;4994993;28;21269;-79
2020/12/08 05:25:56;;;;;;;14.67;12.17;;;6.50;99.90;;;;;;4988766;28;20647;-78
2020/12/08 05:31:57;;;;;;;;;;;;;;;;;;;;;
2020/12/08 05:35:01;;;;;;;14.23;12.10;;;6.50;99.90;;;;;;4975853;28;20452;-79
2020/12/08 05:37:37;;;;;;;14.93;10.53;;;6.40;99.90;;;;;;4975286;28;20534;-80
2020/12/08 05:40:34;;;;;;;15.77;11.00;;;6.40;99.90;;;;;;4978074;28;20595;-80
2020/12/08 05:47:03;;;;;;;14.10;9.70;;;6.40;99.90;;;;;;4981574;28;20467;-79
2020/12/08 05:50:30;;;;;;;14.60;10.70;;;6.40;99.90;;;;;;4976610;28;20538;-79
2020/12/08 05:53:28;;;;;;;17.43;11.80;;;6.30;99.90;;;;;;4946256;28;20451;-81
2020/12/08 05:56:58;;;;;;;;;;;;;;;;;;;;;
2020/12/08 06:00:33;;;;;;;15.00;9.73;;;6.00;99.90;;;;;;4978955;28;20510;-81
2020/12/08 06:06:58;;;;;;;13.60;8.80;;;6.50;99.90;;;;;;4934813;29;20430;-80
2020/12/08 06:10:30;;;;;;;12.37;8.57;;;6.20;99.90;;;;;;4926077;29;20472;-79
2020/12/08 06:14:16;;;;;;;15.00;9.60;;;6.50;99.90;;;;;;4855480;29;20963;-79
2020/12/08 06:17:18;;;;;;;12.83;8.97;;;6.60;99.90;;;;;;4876231;29;20944;-80
2020/12/08 06:23:03;;;;;;;10.00;7.57;;;5.90;99.90;;;;;;4951067;28;20460;-79
2020/12/08 06:25:48;;;;;;;11.30;7.07;;;5.80;99.90;;;;;;4972617;28;21180;-79
2020/12/08 06:28:43;;;;;;;8.17;5.53;;;5.90;99.90;;;;;;4978483;28;20468;-79
2020/12/08 06:31:44;;;;;;;8.80;7.07;;;5.80;99.90;;;;;;4976688;28;20485;-81
2020/12/08 06:34:43;;;;;;;9.70;7.33;;;6.00;99.90;;;;;;4981976;28;20531;-80
2020/12/08 06:37:37;;;;;;;10.47;8.17;;;6.30;99.90;;;;;;4977509;28;20574;-80
2020/12/08 06:40:20;;;;;;;13.30;9.40;;;6.20;99.90;;;;;;4976240;28;20602;-79
2020/12/08 06:43:11;;;;;;;10.47;8.30;;;6.20;99.90;;;;;;4978729;28;20455;-79
2020/12/08 06:46:12;;;;;;;8.90;7.20;;;6.10;99.90;;;;;;4946980;28;20449;-81
2020/12/08 06:49:19;;;;;;;10.10;7.10;;;6.00;99.90;;;;;;4961298;28;20491;-77
2020/12/08 06:52:19;;;;;;;8.53;6.40;;;6.30;99.90;;;;;;4940504;28;20428;-80
2020/12/08 06:55:10;;;;;;;7.50;5.90;;;5.90;99.90;;;;;;4940640;28;20502;-80
2020/12/08 06:58:11;;;;;;;8.37;7.47;;;6.10;99.90;;;;;;4956285;28;20492;-81
2020/12/08 07:01:14;;;;;;;8.10;7.07;;;6.00;99.90;;;;;;4943663;28;20474;-83
2020/12/08 07:12:06;;;;;;;7.00;4.90;;;6.30;99.90;;;;;;4961497;28;20423;-81
2020/12/08 07:15:52;;;;;;;7.27;6.47;;;6.20;99.90;;;;;;4957498;28;20999;-81
2020/12/08 07:18:38;;;;;;;10.67;8.83;;;6.30;99.90;;;;;;5002928;23;20509;-81
2020/12/08 07:21:23;;;;;;;8.10;7.30;;;6.30;99.90;;;;;;4967699;28;20455;-79
2020/12/08 07:24:34;;;;;;;10.20;8.37;;;6.20;99.90;;;;;;4971187;28;20467;-81
2020/12/08 07:27:26;;;;;;;13.87;8.80;;;6.30;99.90;;;;;;4967372;28;20464;-79
2020/12/08 07:30:30;;;;;;;15.47;9.97;;;6.30;99.90;;;;;;4982057;28;20480;-79
2020/12/08 07:33:17;;;;;;;13.50;9.80;;;6.50;99.90;;;;;;4983606;28;20456;-79
2020/12/08 07:36:40;;;;;;;9.70;7.47;;;6.30;99.90;;;;;;4987549;28;20443;-80
2020/12/08 07:39:45;;;;;;;9.17;7.17;;;6.30;99.90;;;;;;4978224;28;20460;-78
2020/12/08 07:42:57;;;;;;;10.30;8.17;;;6.40;99.90;;;;;;4985993;28;20543;-79
2020/12/08 07:46:10;;;;;;;14.60;9.37;;;6.50;99.90;;;;;;4988552;28;20459;-79
2020/12/08 07:49:11;;;;;;;11.17;8.80;;;6.60;99.90;;;;;;4989117;28;20518;-78
2020/12/08 07:55:27;;;;;;;10.77;8.90;;;6.50;99.90;;;;;;4987297;28;20524;-79
2020/12/08 07:58:32;;;;;;;12.17;8.60;;;6.30;99.90;;;;;;4973818;28;20479;-80
2020/12/08 08:01:01;;;;;;;9.80;8.40;;;6.60;99.90;;;;;;4991858;28;21004;-80
2020/12/08 08:03:52;;;;;;;12.67;9.50;;;6.70;99.90;;;;;;4970258;28;20463;-81
2020/12/08 08:06:34;;;;;;;10.23;8.40;;;6.60;99.90;;;;;;4969858;28;20858;-80
2020/12/08 08:09:24;;;;;;;12.17;9.80;;;6.40;99.90;;;;;;4944418;29;20462;-80
2020/12/08 08:19:07;;;;;;;13.23;9.00;;;6.50;99.90;;;;;;4972501;28;20486;-78
2020/12/08 08:21:47;;;;;;;11.47;8.93;;;6.70;99.90;;;;;;4971652;28;20476;-80
2020/12/08 08:24:43;;;;;;;12.03;9.50;;;6.90;99.90;;;;;;4972440;28;20463;-80
2020/12/08 08:27:38;;;;;;;14.60;10.03;;;6.80;99.90;;;;;;4971432;28;20452;-78
2020/12/08 08:30:20;;;;;;;12.80;9.87;;;6.80;99.90;;;;;;4971460;28;20476;-78
2020/12/08 08:32:57;;;;;;;12.30;9.33;;;6.70;99.90;;;;;;4970218;28;20495;-79
2020/12/08 08:35:41;;;;;;;10.30;8.63;;;6.60;99.90;;;;;;4967435;28;20464;-80
2020/12/08 08:38:26;;;;;;;12.47;9.67;;;6.60;99.90;;;;;;4975522;28;20499;-79
2020/12/08 08:41:17;;;;;;;11.33;9.60;;;6.70;99.90;;;;;;4986584;28;20448;-78
2020/12/08 08:43:59;;;;;;;13.87;9.23;;;6.80;99.90;;;;;;4971941;28;20467;-79
2020/12/08 08:46:41;;;;;;;12.80;8.93;;;6.80;99.90;;;;;;4970431;28;20468;-81
2020/12/08 08:49:18;;;;;;;11.07;8.47;;;6.80;99.90;;;;;;4967537;28;20518;-81
2020/12/08 08:52:02;;;;;;;;;;;;;;;;;;;;;
2020/12/08 08:54:55;;;;;;;9.57;7.80;;;6.70;99.90;;;;;;4960439;28;20447;-79
2020/12/08 08:57:45;;;;;;;12.70;9.70;;;6.70;99.90;;;;;;4956703;28;21351;-80
2020/12/08 09:00:21;;;;;;;14.33;7.50;;;6.60;99.90;;;;;;4979378;28;21264;-80
2020/12/08 09:03:05;;;;;;;12.03;8.73;;;6.60;99.90;;;;;;4971314;28;20820;-81
2020/12/08 09:05:55;;;;;;;12.00;9.07;;;6.60;99.90;;;;;;4980134;28;20443;-78
2020/12/08 09:08:47;;;;;;;11.33;8.10;;;6.60;99.90;;;;;;4967306;28;20566;-79
2020/12/08 09:11:27;;;;;;;10.53;8.70;;;6.60;99.90;;;;;;4979201;28;20468;-78
2020/12/08 09:14:38;;;;;;;13.30;10.53;;;6.60;99.90;;;;;;4970988;28;20964;-83
2020/12/08 09:17:34;;;;;;;11.10;8.93;;;7.00;99.90;;;;;;4962840;28;20455;-81
2020/12/08 09:20:03;;;;;;;11.37;8.90;;;6.80;99.90;;;;;;4958907;28;20514;-82
2020/12/08 09:28:56;;;;;;;12.00;9.30;;;6.70;99.90;;;;;;4965572;28;21161;-82
2020/12/08 09:35:36;;;;;;;10.73;8.57;;;6.70;99.90;;;;;;4968744;28;20464;-80
2020/12/08 09:38:29;;;;;;;13.00;8.70;;;6.80;99.90;;;;;;4968385;28;20488;-81
2020/12/08 09:44:15;;;;;;;12.33;10.07;;;6.80;99.90;;;;;;4970347;28;20479;-80
2020/12/08 09:47:04;;;;;;;13.43;9.60;;;7.50;99.90;;;;;;4967672;28;20515;-82
2020/12/08 09:50:01;;;;;;;;;;;;;;;;;;;;;
2020/12/08 09:52:39;;;;;;;11.70;8.80;;;7.60;99.90;;;;;;4967987;28;20448;-81
2020/12/08 09:55:45;;;;;;;17.50;9.63;;;8.10;99.90;;;;;;4966622;28;20527;-79
2020/12/08 10:01:30;;;;;;;11.90;9.47;;;8.00;99.30;;;;;;4965916;28;20989;-82
2020/12/08 10:04:37;;;;;;;13.47;9.70;;;7.70;99.60;;;;;;4978013;28;20456;-79
2020/12/08 10:07:54;;;;;;;;;;;;;;;;;;;;;
2020/12/08 10:10:24;;;;;;;12.50;9.23;;;7.40;99.80;;;;;;4967537;28;20468;-79
2020/12/08 10:13:25;;;;;;;12.23;9.17;;;7.60;99.90;;;;;;4966392;28;20544;-80
2020/12/08 10:16:19;;;;;;;11.47;8.90;;;7.50;99.90;;;;;;4967493;28;20543;-80
2020/12/08 10:19:03;;;;;;;11.67;8.80;;;7.60;99.90;;;;;;4966591;28;21977;-81
2020/12/08 10:22:05;;;;;;;9.20;7.93;;;7.50;99.90;;;;;;4965023;28;20448;-78
2020/12/08 10:25:00;;;;;;;12.53;9.70;;;7.40;99.90;;;;;;4966101;28;20468;-79
2020/12/08 10:30:38;;;;;;;10.60;8.87;;;7.50;99.90;;;;;;4972917;28;20460;-80
2020/12/08 10:33:42;;;;;;;11.80;8.53;;;7.50;99.90;;;;;;4974932;28;20475;-79
2020/12/08 10:36:55;;;;;;;11.70;8.60;;;7.40;99.90;;;;;;4965192;28;20557;-81
2020/12/08 10:39:53;;;;;;;14.13;9.80;;;8.20;99.90;;;;;;4968561;28;20491;-81
2020/12/08 10:42:38;;;;;;;12.70;9.37;;;7.60;99.90;;;;;;4962962;28;20460;-81
2020/12/08 10:45:14;;;;;;;12.87;9.13;;;7.60;99.90;;;;;;4966695;28;20489;-80
2020/12/08 10:48:03;;;;;;;13.93;9.03;;;7.60;99.90;;;;;;4968442;28;20509;-79
2020/12/08 10:50:46;;;;;;;11.53;9.50;;;7.80;99.90;;;;;;4971842;28;20440;-84
2020/12/08 10:53:48;;;;;;;15.67;10.33;;;7.90;99.70;;;;;;4978208;28;20498;-85
2020/12/08 11:00:57;;;;;;;10.20;8.53;;;7.60;99.90;;;;;;4969137;28;20435;-85
2020/12/08 11:03:26;;;;;;;10.53;8.70;;;7.90;99.70;;;;;;4966529;28;20498;-84
2020/12/08 12:01:09;;;;;;;7.97;5.87;;;7.30;99.00;;;;;;1320430;26;20479;-85
2020/12/08 12:04:09;;;;;;;7.40;5.70;;;7.60;98.80;;;;;;4985673;28;20457;-81
2020/12/08 12:06:54;;;;;;;9.03;6.90;;;7.90;98.00;;;;;;4967445;28;20532;-80
2020/12/08 12:09:36;;;;;;;8.27;6.33;;;8.00;97.50;;;;;;4988992;28;20483;-84
2020/12/08 12:12:40;;;;;;;8.23;5.80;;;8.00;97.20;;;;;;4983417;28;20554;-83
2020/12/08 12:15:31;;;;;;;9.10;6.70;;;8.10;97.20;;;;;;5000157;28;21066;-85
2020/12/08 12:22:15;;;;;;;6.60;5.93;;;8.00;97.80;;;;;;4994300;28;20513;-86
2020/12/08 12:25:21;;;;;;;8.53;6.40;;;8.10;97.50;;;;;;4662989;28;10001365;-87
2020/12/08 12:28:24;;;;;;;6.77;6.07;;;8.10;97.60;;;;;;5007257;28;20441;-85
2020/12/08 12:35:44;;;;;;;;;;;;;;;;;;;;;
2020/12/08 12:38:49;;;;;;;;;;;;;;;;;;;;;
2020/12/08 12:41:37;;;;;;;7.77;5.63;;;8.20;97.00;;;;;;4915313;29;20466;-84
2020/12/08 12:44:31;;;;;;;9.23;6.40;;;8.10;97.20;;;;;;4974131;28;21031;-84
2020/12/08 12:47:52;;;;;;;7.60;6.10;;;8.20;97.50;;;;;;4923815;29;20445;-84
2020/12/08 12:50:46;;;;;;;6.70;6.00;;;7.90;97.30;;;;;;4925102;29;20576;-86
2020/12/08 12:53:27;;;;;;;7.67;5.60;;;7.80;97.70;;;;;;4924877;29;21011;-85
2020/12/08 12:56:37;;;;;;;6.07;5.00;;;8.20;97.40;;;;;;4868767;29;20462;-86
2020/12/08 12:59:40;;;;;;;7.43;6.30;;;8.20;96.90;;;;;;4869678;29;20506;-85
2020/12/08 13:02:17;;;;;;;7.90;6.23;;;8.20;96.70;;;;;;4872728;29;21307;-83
2020/12/08 13:05:44;;;;;;;6.97;6.07;;;8.10;96.60;;;;;;4939325;28;20505;-85
2020/12/08 13:08:30;;;;;;;8.30;6.20;;;8.10;97.20;;;;;;4984559;28;21130;-83
2020/12/08 13:11:26;;;;;;;6.50;5.30;;;8.20;96.80;;;;;;4983415;28;20883;-86
2020/12/08 13:14:29;;;;;;;7.43;5.90;;;8.10;96.90;;;;;;5007961;28;20439;-86
2020/12/08 13:17:07;;;;;;;7.40;6.27;;;8.00;97.40;;;;;;5002894;28;20538;-85
2020/12/08 13:20:29;;;;;;;;;;;;;;;;;;;;;
2020/12/08 13:23:33;;;;;;;6.27;5.67;;;7.90;98.00;;;;;;4983118;28;20453;-86
2020/12/08 13:26:51;;;;;;;8.50;6.23;;;8.20;97.30;;;;;;5006265;28;20435;-83
2020/12/08 13:30:07;;;;;;;7.37;6.00;;;8.30;96.40;;;;;;5098676;23;20502;-86
2020/12/08 13:33:23;;;;;;;6.80;5.73;;;8.30;96.50;;;;;;4958809;28;20476;-85
2020/12/08 13:36:28;;;;;;;7.90;6.20;;;8.10;96.60;;;;;;5090347;23;20493;-84
2020/12/08 14:05:17;;;;;;;7.80;6.20;;;8.40;95.70;;;;;;5144173;22;20474;-84
2020/12/08 14:41:14;;;;;;;7.90;6.70;;;8.20;96.90;;;;;;4948021;28;20473;-85
2020/12/08 14:44:06;;;;;;;6.97;6.27;;;8.20;96.90;;;;;;4925877;28;20462;-84
2020/12/08 14:47:27;;;;;;;7.53;5.73;;;8.20;96.90;;;;;;4949850;28;20484;-85
2020/12/08 14:50:06;;;;;;;6.30;5.50;;;8.00;97.10;;;;;;4956744;28;20544;-84
2020/12/08 14:53:11;;;;;;;7.40;6.00;;;8.30;97.10;;;;;;4957470;28;20432;-85
2020/12/08 14:56:41;;;;;;;6.93;5.70;;;8.20;97.10;;;;;;4955391;28;20443;-84
2020/12/08 15:02:47;;;;;;;7.53;5.77;;;8.30;97.60;;;;;;4959134;28;20453;-85
2020/12/08 15:05:34;;;;;;;6.33;5.73;;;8.20;97.50;;;;;;4959419;28;20516;-86
2020/12/08 15:08:54;;;;;;;8.07;6.83;;;8.20;97.50;;;;;;4920935;29;21026;-85
2020/12/08 15:12:33;;;;;;;9.13;6.60;;;8.30;97.70;;;;;;4937803;29;20489;-84
2020/12/08 15:15:33;;;;;;;6.20;5.50;;;8.20;98.00;;;;;;4917623;29;20458;-83
2020/12/08 15:26:06;;;;;;;7.23;6.40;;;8.20;97.30;;;;;;4914406;29;20413;-87
2020/12/08 15:29:15;;;;;;;9.03;6.50;;;8.40;97.50;;;;;;4928673;29;20474;-85
2020/12/08 15:32:12;;;;;;;8.20;6.97;;;8.30;97.10;;;;;;4908115;29;20450;-86
2020/12/08 15:35:24;;;;;;;8.23;6.40;;;8.40;97.20;;;;;;4912341;29;20449;-82
2020/12/08 15:38:44;;;;;;;8.07;6.33;;;8.20;97.40;;;;;;4919378;28;20569;-84
2020/12/08 15:42:06;;;;;;;7.17;6.47;;;8.00;97.70;;;;;;4967026;28;20429;-86
2020/12/08 15:44:59;;;;;;;8.67;6.63;;;8.10;97.90;;;;;;4914105;29;20783;-86
2020/12/08 15:48:07;;;;;;;8.93;7.10;;;8.10;97.70;;;;;;4853149;29;20423;-86
2020/12/08 15:51:00;;;;;;;7.47;6.77;;;8.20;97.80;;;;;;4832100;29;21434;-84
2020/12/08 15:53:39;;;;;;;8.23;6.73;;;8.30;97.50;;;;;;4841434;29;20471;-85
2020/12/08 15:56:15;;;;;;;7.30;6.57;;;8.30;97.50;;;;;;4821791;29;20534;-84
2020/12/08 15:59:13;;;;;;;8.47;6.90;;;8.20;97.50;;;;;;4832762;29;20510;-86
2020/12/08 16:02:38;;;;;;;7.80;6.87;;;8.20;97.80;;;;;;4836368;29;20904;-85
2020/12/08 16:10:16;;;;;;;8.60;7.10;;;8.10;98.30;;;;;;4810985;29;20539;-85
2020/12/08 16:13:10;;;;;;;8.83;6.17;;;8.20;98.30;;;;;;4785179;29;20523;-85
2020/12/08 16:15:59;;;;;;;7.67;6.37;;;8.30;97.70;;;;;;4821919;29;20510;-86
2020/12/08 16:18:58;;;;;;;8.63;6.10;;;8.30;97.60;;;;;;4882890;29;20518;-84
2020/12/08 16:25:01;;;;;;;8.97;6.93;;;8.30;97.40;;;;;;4917591;28;20472;-85
2020/12/08 16:28:08;;;;;;;9.27;6.73;;;8.00;97.50;;;;;;4962753;28;20622;-85
2020/12/08 16:30:50;;;;;;;7.83;6.67;;;7.90;98.50;;;;;;4950564;28;20488;-88
2020/12/08 16:33:42;;;;;;;8.20;7.00;;;8.20;98.50;;;;;;4953289;28;20462;-86
2020/12/08 16:36:42;;;;;;;8.37;7.47;;;8.40;98.60;;;;;;4963817;28;20448;-85
2020/12/08 16:39:52;;;;;;;9.03;7.10;;;7.70;99.10;;;;;;4949622;28;20490;-87
2020/12/08 16:42:31;;;;;;;8.93;7.17;;;7.50;99.90;;;;;;4949600;28;20469;-85
2020/12/08 16:45:15;;;;;;;;;;;;;;;;;;;;;
2020/12/08 16:54:51;;;;;;;8.13;7.33;;;8.30;98.90;;;;;;5000485;28;20508;-85
2020/12/08 17:00:45;;;;;;;9.47;7.73;;;7.40;99.90;;;;;;4985590;28;20454;-85
2020/12/08 17:03:51;;;;;;;9.00;7.60;;;8.00;99.90;;;;;;4991455;28;20451;-86
2020/12/08 17:10:09;;;;;;;9.70;7.50;;;8.20;99.60;;;;;;4984660;28;20486;-84
2020/12/08 17:12:57;;;;;;;7.70;6.90;;;7.90;99.90;;;;;;4985424;28;20489;-84
2020/12/08 17:16:05;;;;;;;11.43;8.03;;;8.10;99.90;;;;;;4997651;28;20972;-81
2020/12/08 17:18:48;;;;;;;10.80;7.97;;;8.10;99.90;;;;;;4981667;28;20502;-84
2020/12/08 17:21:23;;;;;;;9.33;7.20;;;8.10;99.90;;;;;;4985319;28;20456;-82
2020/12/08 17:24:12;;;;;;;9.87;8.13;;;8.10;99.90;;;;;;4984495;28;20473;-81
2020/12/08 17:27:09;;;;;;;9.30;8.27;;;8.10;99.90;;;;;;4980527;28;20847;-81
2020/12/08 17:29:45;;;;;;;7.90;7.10;;;8.00;99.90;;;;;;5001342;28;20589;-83
2020/12/08 17:32:15;;;;;;;10.30;7.67;;;8.20;99.90;;;;;;4996324;28;20554;-83
2020/12/08 17:34:52;;;;;;;11.30;7.70;;;8.40;99.90;;;;;;4991851;28;20434;-83
2020/12/08 17:37:26;;;;;;;9.20;7.40;;;8.50;99.90;;;;;;4983803;28;20525;-82
2020/12/08 17:40:05;;;;;;;10.13;7.57;;;8.50;99.90;;;;;;4986025;28;20555;-83
2020/12/08 17:42:44;;;;;;;8.90;8.00;;;8.00;99.90;;;;;;4981925;28;20822;-85
2020/12/08 17:45:35;;;;;;;8.80;7.30;;;7.80;99.90;;;;;;4979246;28;20452;-82
2020/12/08 17:48:36;;;;;;;10.27;7.83;;;7.60;99.90;;;;;;4983640;28;20510;-82
2020/12/08 17:51:22;;;;;;;9.20;8.10;;;7.50;99.90;;;;;;4979952;28;20470;-83
2020/12/08 17:54:09;;;;;;;8.73;7.60;;;7.70;99.90;;;;;;4983723;28;20677;-83
2020/12/08 17:56:49;;;;;;;10.37;7.97;;;8.80;99.90;;;;;;4985992;28;20460;-83
2020/12/08 17:59:32;;;;;;;9.23;7.93;;;8.00;99.90;;;;;;4999359;28;20580;-84
2020/12/08 18:02:06;;;;;;;8.87;7.70;;;7.90;99.90;;;;;;4981822;28;20490;-83
2020/12/08 18:04:43;;;;;;;9.57;7.60;;;7.80;99.90;;;;;;4983847;28;20474;-84
2020/12/08 18:07:26;;;;;;;8.10;7.10;;;7.70;99.90;;;;;;4982136;28;20455;-82
2020/12/08 18:09:53;;;;;;;8.07;7.27;;;7.70;99.90;;;;;;4980483;28;20479;-83
2020/12/08 18:12:19;;;;;;;8.63;7.70;;;7.70;99.90;;;;;;4982947;28;20558;-84
2020/12/08 18:14:48;;;;;;;9.40;8.40;;;7.90;99.90;;;;;;4991258;28;20469;-82
2020/12/08 18:17:15;;;;;;;10.67;8.30;;;8.20;99.90;;;;;;4989182;28;20456;-82
2020/12/08 18:19:41;;;;;;;9.50;8.20;;;8.30;99.90;;;;;;4987719;28;20598;-83
2020/12/08 18:22:10;;;;;;;9.47;8.20;;;8.40;99.90;;;;;;4992332;28;20542;-82